createdAt,value
2022-08-18T00:00:47.168Z,18.82
2022-08-18T00:01:47.183Z,18.78
2022-08-18T00:03:00.620Z,18.75
2022-08-18T00:03:57.048Z,18.70
2022-08-18T00:04:49.533Z,18.60
2022-08-18T00:05:47.128Z,18.60
2022-08-18T00:06:47.110Z,18.67
2022-08-18T00:07:47.332Z,18.66
2022-08-18T00:08:47.072Z,18.66
2022-08-18T00:09:47.063Z,18.67
2022-08-18T00:10:47.104Z,18.65
2022-08-18T00:11:47.063Z,18.63
2022-08-18T00:12:47.021Z,18.72
2022-08-18T00:13:47.015Z,18.67
2022-08-18T00:14:47.004Z,18.65
2022-08-18T00:15:49.058Z,18.72
2022-08-18T00:16:47.020Z,18.76
2022-08-18T00:17:46.992Z,18.69
2022-08-18T00:18:46.960Z,18.75
2022-08-18T00:19:48.333Z,18.70
2022-08-18T00:20:46.936Z,18.81
2022-08-18T00:21:46.980Z,18.81
2022-08-18T00:22:47.019Z,18.82
2022-08-18T00:23:46.899Z,18.90
2022-08-18T00:24:48.365Z,18.85
2022-08-18T00:25:46.871Z,18.92
2022-08-18T00:26:47.014Z,18.87
2022-08-18T00:27:46.872Z,18.91
2022-08-18T00:28:46.857Z,18.99
2022-08-18T00:29:46.826Z,18.94
2022-08-18T00:30:46.890Z,18.94
2022-08-18T00:31:47.836Z,18.92
2022-08-18T00:32:46.906Z,18.91
2022-08-18T00:33:46.812Z,18.94
2022-08-18T00:34:46.841Z,18.95
2022-08-18T00:35:46.760Z,18.87
2022-08-18T00:36:46.751Z,18.82
2022-08-18T00:37:46.792Z,18.81
2022-08-18T00:38:46.742Z,18.78
2022-08-18T00:39:47.836Z,18.81
2022-08-18T00:40:46.772Z,18.84
2022-08-18T00:41:46.763Z,18.82
2022-08-18T00:42:46.770Z,18.92
2022-08-18T00:43:46.672Z,18.84
2022-08-18T00:44:46.729Z,18.78
2022-08-18T00:45:46.667Z,18.85
2022-08-18T00:46:46.640Z,18.81
2022-08-18T00:47:46.623Z,18.85
2022-08-18T00:48:48.878Z,18.82
2022-08-18T00:49:46.602Z,18.69
2022-08-18T00:50:46.641Z,18.72
2022-08-18T00:51:46.625Z,18.66
2022-08-18T00:52:46.566Z,18.63
2022-08-18T00:53:46.557Z,18.76
2022-08-18T00:54:46.560Z,18.80
2022-08-18T00:55:53.802Z,18.72
2022-08-18T00:56:47.589Z,18.82
2022-08-18T00:57:46.618Z,18.70
2022-08-18T00:58:46.497Z,18.87
2022-08-18T00:59:47.015Z,18.81
2022-08-18T01:00:46.544Z,18.76
2022-08-18T01:01:46.469Z,18.73
2022-08-18T01:02:46.457Z,18.72
2022-08-18T01:03:46.448Z,18.76
2022-08-18T01:04:46.430Z,18.78
2022-08-18T01:05:46.446Z,18.84
2022-08-18T01:06:46.426Z,18.75
2022-08-18T01:07:46.415Z,18.81
2022-08-18T01:08:46.450Z,18.87
2022-08-18T01:09:46.371Z,18.88
2022-08-18T01:10:46.364Z,18.91
2022-08-18T01:11:46.371Z,18.99
2022-08-18T01:12:47.038Z,19.02
2022-08-18T01:13:46.370Z,19.07
2022-08-18T01:14:46.314Z,19.06
2022-08-18T01:15:46.302Z,19.06
2022-08-18T01:16:53.172Z,19.06
2022-08-18T01:17:47.339Z,19.04
2022-08-18T01:18:46.322Z,19.04
2022-08-18T01:19:46.312Z,19.04
2022-08-18T01:20:46.295Z,19.10
2022-08-18T01:21:46.234Z,19.11
2022-08-18T01:22:46.234Z,19.02
2022-08-18T01:23:46.251Z,19.08
2022-08-18T01:24:46.221Z,19.04
2022-08-18T01:25:46.188Z,19.04
2022-08-18T01:26:46.219Z,19.07
2022-08-18T01:27:46.556Z,19.10
2022-08-18T01:28:46.159Z,19.08
2022-08-18T01:29:46.152Z,19.04
2022-08-18T01:30:46.135Z,19.02
2022-08-18T01:31:54.952Z,19.07
2022-08-18T01:32:47.143Z,18.98
2022-08-18T01:33:46.118Z,18.99
2022-08-18T01:34:46.103Z,18.95
2022-08-18T01:35:46.116Z,19.00
2022-08-18T01:36:46.064Z,19.02
2022-08-18T01:37:46.084Z,18.94
2022-08-18T01:38:46.051Z,18.99
2022-08-18T01:41:11.213Z,19.02
2022-08-18T01:41:22.597Z,18.99
2022-08-18T01:41:47.058Z,18.98
2022-08-18T01:42:46.003Z,18.95
2022-08-18T01:43:45.982Z,19.04
2022-08-18T01:44:45.990Z,18.98
2022-08-18T01:45:46.089Z,18.98
2022-08-18T01:46:45.994Z,18.91
2022-08-18T01:47:47.684Z,18.92
2022-08-18T01:48:46.003Z,18.85
2022-08-18T01:49:45.917Z,18.92
2022-08-18T01:50:45.916Z,18.90
2022-08-18T01:51:45.897Z,18.90
2022-08-18T01:52:45.883Z,18.82
2022-08-18T01:53:45.932Z,18.82
2022-08-18T01:54:45.891Z,18.87
2022-08-18T01:55:45.866Z,18.91
2022-08-18T01:56:45.844Z,18.90
2022-08-18T01:57:45.902Z,18.81
2022-08-18T01:58:45.813Z,18.80
2022-08-18T01:59:45.865Z,18.80
2022-08-18T02:00:45.792Z,18.82
2022-08-18T02:01:50.368Z,18.76
2022-08-18T02:02:46.767Z,18.78
2022-08-18T02:03:45.756Z,18.78
2022-08-18T02:04:45.782Z,18.85
2022-08-18T02:05:45.813Z,18.75
2022-08-18T02:06:47.857Z,18.87
2022-08-18T02:07:45.798Z,18.75
2022-08-18T02:08:46.461Z,18.84
2022-08-18T02:09:46.687Z,18.81
2022-08-18T02:10:45.678Z,18.80
2022-08-18T02:11:45.703Z,18.82
2022-08-18T02:12:45.681Z,18.75
2022-08-18T02:13:45.662Z,18.80
2022-08-18T02:14:45.670Z,18.81
2022-08-18T02:15:45.623Z,18.78
2022-08-18T02:16:45.635Z,18.78
2022-08-18T02:17:45.814Z,18.76
2022-08-18T02:18:48.415Z,18.81
2022-08-18T02:19:45.617Z,18.85
2022-08-18T02:20:45.563Z,18.78
2022-08-18T02:21:45.557Z,18.82
2022-08-18T02:22:45.539Z,18.76
2022-08-18T02:23:53.062Z,18.78
2022-08-18T02:24:46.564Z,18.78
2022-08-18T02:25:45.520Z,18.84
2022-08-18T02:26:45.502Z,18.82
2022-08-18T02:27:45.629Z,18.92
2022-08-18T02:28:45.475Z,18.92
2022-08-18T02:29:45.491Z,18.91
2022-08-18T02:30:45.489Z,18.88
2022-08-18T02:31:45.437Z,18.94
2022-08-18T02:32:45.465Z,18.91
2022-08-18T02:33:52.002Z,18.87
2022-08-18T02:34:46.445Z,18.91
2022-08-18T02:35:45.406Z,18.91
2022-08-18T02:36:45.415Z,18.98
2022-08-18T02:37:45.369Z,18.82
2022-08-18T02:38:45.357Z,18.92
2022-08-18T02:39:46.401Z,18.82
2022-08-18T02:40:45.354Z,18.87
2022-08-18T02:41:45.363Z,18.80
2022-08-18T02:42:45.341Z,18.87
2022-08-18T02:43:45.299Z,18.78
2022-08-18T02:44:45.289Z,18.80
2022-08-18T02:45:45.285Z,18.85
2022-08-18T02:46:45.314Z,18.72
2022-08-18T02:47:45.406Z,18.85
2022-08-18T02:48:45.243Z,18.81
2022-08-18T02:49:45.231Z,18.73
2022-08-18T02:50:45.223Z,18.76
2022-08-18T02:51:45.226Z,18.72
2022-08-18T02:52:45.247Z,18.73
2022-08-18T02:53:45.210Z,18.81
2022-08-18T02:54:45.175Z,18.75
2022-08-18T02:55:45.162Z,18.80
2022-08-18T02:56:45.197Z,18.80
2022-08-18T02:57:45.181Z,18.75
2022-08-18T02:58:45.136Z,18.84
2022-08-18T02:59:47.323Z,18.76
2022-08-18T03:00:45.107Z,18.85
2022-08-18T03:01:45.284Z,18.75
2022-08-18T03:02:45.105Z,18.72
2022-08-18T03:03:45.090Z,18.73
2022-08-18T03:04:45.099Z,18.69
2022-08-18T03:05:45.050Z,18.72
2022-08-18T03:06:45.330Z,18.66
2022-08-18T03:07:45.106Z,18.62
2022-08-18T03:08:45.027Z,18.54
2022-08-18T03:09:45.046Z,18.52
2022-08-18T03:10:44.993Z,18.48
2022-08-18T03:11:44.980Z,18.42
2022-08-18T03:12:44.977Z,18.45
2022-08-18T03:13:44.975Z,18.41
2022-08-18T03:14:44.987Z,18.42
2022-08-18T03:15:44.948Z,18.48
2022-08-18T03:16:53.171Z,18.45
2022-08-18T03:17:45.918Z,18.47
2022-08-18T03:18:44.904Z,18.47
2022-08-18T03:19:44.926Z,18.41
2022-08-18T03:20:44.900Z,18.45
2022-08-18T03:21:44.867Z,18.42
2022-08-18T03:22:44.856Z,18.42
2022-08-18T03:23:44.845Z,18.44
2022-08-18T03:24:45.879Z,18.37
2022-08-18T03:25:44.835Z,18.41
2022-08-18T03:26:44.826Z,18.44
2022-08-18T03:27:44.876Z,18.41
2022-08-18T03:28:44.788Z,18.45
2022-08-18T03:29:44.775Z,18.41
2022-08-18T03:30:44.879Z,18.51
2022-08-18T03:31:44.788Z,18.47
2022-08-18T03:32:45.862Z,18.48
2022-08-18T03:33:44.728Z,18.50
2022-08-18T03:34:44.718Z,18.50
2022-08-18T03:35:44.716Z,18.52
2022-08-18T03:36:44.753Z,18.47
2022-08-18T03:37:44.749Z,18.45
2022-08-18T03:38:44.701Z,18.45
2022-08-18T03:39:45.701Z,18.47
2022-08-18T03:40:44.649Z,18.41
2022-08-18T03:41:59.702Z,18.41
2022-08-18T03:42:45.670Z,18.37
2022-08-18T03:43:50.963Z,18.37
2022-08-18T03:44:45.606Z,18.27
2022-08-18T03:45:44.594Z,18.33
2022-08-18T03:46:44.589Z,18.32
2022-08-18T03:47:44.604Z,18.20
2022-08-18T03:48:44.567Z,18.15
2022-08-18T03:49:44.594Z,18.14
2022-08-18T03:50:44.544Z,18.15
2022-08-18T03:51:44.528Z,18.10
2022-08-18T03:52:44.528Z,18.21
2022-08-18T03:53:44.516Z,18.15
2022-08-18T03:54:44.538Z,18.18
2022-08-18T03:55:44.482Z,18.07
2022-08-18T03:56:44.486Z,18.10
2022-08-18T03:57:44.560Z,18.02
2022-08-18T03:58:44.464Z,17.97
2022-08-18T03:59:44.457Z,17.92
2022-08-18T04:00:44.596Z,17.82
2022-08-18T04:01:44.494Z,17.81
2022-08-18T04:02:44.410Z,17.78
2022-08-18T04:03:44.399Z,17.79
2022-08-18T04:04:44.403Z,17.82
2022-08-18T04:05:44.413Z,17.71
2022-08-18T04:06:44.355Z,17.72
2022-08-18T04:07:44.470Z,17.66
2022-08-18T04:08:44.334Z,17.72
2022-08-18T04:09:44.360Z,17.70
2022-08-18T04:10:44.330Z,17.72
2022-08-18T04:11:44.444Z,17.71
2022-08-18T04:12:44.288Z,17.75
2022-08-18T04:13:44.277Z,17.64
2022-08-18T04:14:44.271Z,17.68
2022-08-18T04:15:44.286Z,17.62
2022-08-18T04:16:44.275Z,17.59
2022-08-18T04:18:06.064Z,17.48
2022-08-18T04:18:45.229Z,17.44
2022-08-18T04:19:44.209Z,17.56
2022-08-18T04:20:58.968Z,17.51
2022-08-18T04:21:45.205Z,17.55
2022-08-18T04:22:44.225Z,17.72
2022-08-18T04:23:44.452Z,17.72
2022-08-18T04:24:44.150Z,17.71
2022-08-18T04:25:44.144Z,17.75
2022-08-18T04:26:44.139Z,17.68
2022-08-18T04:27:44.158Z,17.68
2022-08-18T04:28:44.105Z,17.74
2022-08-18T04:29:44.100Z,17.68
2022-08-18T04:30:44.083Z,17.74
2022-08-18T04:31:44.090Z,17.77
2022-08-18T04:32:44.097Z,17.72
2022-08-18T04:33:44.094Z,17.70
2022-08-18T04:34:44.038Z,17.71
2022-08-18T04:35:44.033Z,17.74
2022-08-18T04:36:44.047Z,17.71
2022-08-18T04:37:44.018Z,17.74
2022-08-18T04:38:44.014Z,17.75
2022-08-18T04:39:44.025Z,17.66
2022-08-18T04:40:44.028Z,17.68
2022-08-18T04:41:44.147Z,17.72
2022-08-18T04:42:43.955Z,17.68
2022-08-18T04:43:43.946Z,17.71
2022-08-18T04:44:43.955Z,17.81
2022-08-18T04:45:43.959Z,17.71
2022-08-18T04:46:43.899Z,17.72
2022-08-18T04:47:43.891Z,17.79
2022-08-18T04:48:43.905Z,17.77
2022-08-18T04:49:43.897Z,17.79
2022-08-18T04:50:43.880Z,17.75
2022-08-18T04:52:34.204Z,17.78
2022-08-18T04:52:44.876Z,17.77
2022-08-18T04:53:43.826Z,17.79
2022-08-18T04:54:43.842Z,17.86
2022-08-18T04:55:43.839Z,17.82
2022-08-18T04:56:43.837Z,17.74
2022-08-18T04:57:43.775Z,17.79
2022-08-18T04:58:43.764Z,17.79
2022-08-18T04:59:43.796Z,17.75
2022-08-18T05:00:43.829Z,17.78
2022-08-18T05:01:43.832Z,17.87
2022-08-18T05:02:43.782Z,17.74
2022-08-18T05:03:50.465Z,17.82
2022-08-18T05:04:44.700Z,17.84
2022-08-18T05:05:43.767Z,17.81
2022-08-18T05:06:43.694Z,17.87
2022-08-18T05:07:43.703Z,17.84
2022-08-18T05:08:43.652Z,17.90
2022-08-18T05:09:43.649Z,17.93
2022-08-18T05:10:43.640Z,17.90
2022-08-18T05:11:43.622Z,17.95
2022-08-18T05:12:43.645Z,17.97
2022-08-18T05:13:43.645Z,17.95
2022-08-18T05:14:43.580Z,18.02
2022-08-18T05:16:07.360Z,17.97
2022-08-18T05:16:48.709Z,17.95
2022-08-18T05:17:44.550Z,18.02
2022-08-18T05:18:43.543Z,18.03
2022-08-18T05:19:44.255Z,18.11
2022-08-18T05:20:43.868Z,18.11
2022-08-18T05:21:43.510Z,18.08
2022-08-18T05:22:43.492Z,18.21
2022-08-18T05:23:43.530Z,18.14
2022-08-18T05:24:43.467Z,18.26
2022-08-18T05:25:43.652Z,18.21
2022-08-18T05:26:43.444Z,18.15
2022-08-18T05:27:43.448Z,18.14
2022-08-18T05:28:43.439Z,18.29
2022-08-18T05:29:45.946Z,18.14
2022-08-18T05:30:43.669Z,18.26
2022-08-18T05:31:43.390Z,18.29
2022-08-18T05:32:48.557Z,18.27
2022-08-18T05:33:44.410Z,18.27
2022-08-18T05:34:43.358Z,18.33
2022-08-18T05:35:43.345Z,18.44
2022-08-18T05:36:43.337Z,18.26
2022-08-18T05:37:43.351Z,18.33
2022-08-18T05:38:43.320Z,18.45
2022-08-18T05:39:43.366Z,18.47
2022-08-18T05:40:43.316Z,18.48
2022-08-18T05:41:43.278Z,18.48
2022-08-18T05:42:43.267Z,18.52
2022-08-18T05:43:51.955Z,18.48
2022-08-18T05:44:44.253Z,18.48
2022-08-18T05:45:43.277Z,18.58
2022-08-18T05:46:43.237Z,18.48
2022-08-18T05:47:43.211Z,18.51
2022-08-18T05:48:43.241Z,18.51
2022-08-18T05:49:43.200Z,18.67
2022-08-18T05:50:43.209Z,18.65
2022-08-18T05:51:43.178Z,18.67
2022-08-18T05:52:43.157Z,18.78
2022-08-18T05:53:43.186Z,18.85
2022-08-18T05:54:43.128Z,18.75
2022-08-18T05:55:47.636Z,18.84
2022-08-18T05:56:43.121Z,18.95
2022-08-18T05:57:43.119Z,18.88
2022-08-18T05:58:43.086Z,18.87
2022-08-18T05:59:43.106Z,19.04
2022-08-18T06:00:43.102Z,18.91
2022-08-18T06:01:43.053Z,18.98
2022-08-18T06:02:43.097Z,19.04
2022-08-18T06:03:46.606Z,19.04
2022-08-18T06:04:43.019Z,19.18
2022-08-18T06:05:43.039Z,19.22
2022-08-18T06:06:47.334Z,19.23
2022-08-18T06:07:42.992Z,19.22
2022-08-18T06:08:43.001Z,19.25
2022-08-18T06:09:43.008Z,19.26
2022-08-18T06:10:42.948Z,19.25
2022-08-18T06:11:42.938Z,19.37
2022-08-18T06:12:46.889Z,19.39
2022-08-18T06:13:42.929Z,19.36
2022-08-18T06:14:42.941Z,19.43
2022-08-18T06:15:42.896Z,19.46
2022-08-18T06:16:44.502Z,19.54
2022-08-18T06:17:43.854Z,19.55
2022-08-18T06:18:42.861Z,19.59
2022-08-18T06:19:42.860Z,19.56
2022-08-18T06:20:42.841Z,19.63
2022-08-18T06:21:42.825Z,19.69
2022-08-18T06:22:52.185Z,19.77
2022-08-18T06:23:43.821Z,19.74
2022-08-18T06:24:42.809Z,19.87
2022-08-18T06:25:42.825Z,19.83
2022-08-18T06:26:42.775Z,19.86
2022-08-18T06:27:42.808Z,19.84
2022-08-18T06:28:42.755Z,19.98
2022-08-18T06:29:42.734Z,20.02
2022-08-18T06:30:42.745Z,19.98
2022-08-18T06:31:42.711Z,20.02
2022-08-18T06:32:42.705Z,20.02
2022-08-18T06:33:42.724Z,20.06
2022-08-18T06:34:42.691Z,20.02
2022-08-18T06:35:42.680Z,20.10
2022-08-18T06:36:42.673Z,20.10
2022-08-18T06:37:42.645Z,20.08
2022-08-18T06:38:45.463Z,20.23
2022-08-18T06:39:42.710Z,20.20
2022-08-18T06:40:42.613Z,20.20
2022-08-18T06:41:43.868Z,20.08
2022-08-18T06:42:42.590Z,20.11
2022-08-18T06:43:42.629Z,20.05
2022-08-18T06:44:42.573Z,20.05
2022-08-18T06:45:42.560Z,20.06
2022-08-18T06:46:42.546Z,20.05
2022-08-18T06:47:42.558Z,20.11
2022-08-18T06:48:42.564Z,20.21
2022-08-18T06:49:42.556Z,20.26
2022-08-18T06:50:43.610Z,20.11
2022-08-18T06:51:42.495Z,20.10
2022-08-18T06:52:42.518Z,20.08
2022-08-18T06:53:42.491Z,20.05
2022-08-18T06:54:42.451Z,20.08
2022-08-18T06:55:43.522Z,20.08
2022-08-18T06:56:42.435Z,20.02
2022-08-18T06:57:42.450Z,20.05
2022-08-18T06:58:42.448Z,20.02
2022-08-18T06:59:42.395Z,20.03
2022-08-18T07:00:42.436Z,20.03
2022-08-18T07:01:43.408Z,20.05
2022-08-18T07:02:42.380Z,20.11
2022-08-18T07:03:42.364Z,20.06
2022-08-18T07:04:42.343Z,20.03
2022-08-18T07:05:42.329Z,20.08
2022-08-18T07:06:42.319Z,20.03
2022-08-18T07:07:42.336Z,20.06
2022-08-18T07:08:42.318Z,20.13
2022-08-18T07:09:42.297Z,20.08
2022-08-18T07:10:42.300Z,20.11
2022-08-18T07:11:42.299Z,20.11
2022-08-18T07:12:42.248Z,20.21
2022-08-18T07:13:42.253Z,20.21
2022-08-18T07:14:42.236Z,20.24
2022-08-18T07:15:42.239Z,20.17
2022-08-18T07:16:59.371Z,20.23
2022-08-18T07:17:44.150Z,20.28
2022-08-18T07:18:42.214Z,20.26
2022-08-18T07:19:42.208Z,20.26
2022-08-18T07:20:42.168Z,20.11
2022-08-18T07:21:42.187Z,20.06
2022-08-18T07:22:42.137Z,20.10
2022-08-18T07:23:42.130Z,20.17
2022-08-18T07:24:42.116Z,20.24
2022-08-18T07:25:42.104Z,20.08
2022-08-18T07:26:42.141Z,20.20
2022-08-18T07:27:42.102Z,20.17
2022-08-18T07:28:42.134Z,20.26
2022-08-18T07:29:42.072Z,20.24
2022-08-18T07:31:00.322Z,20.26
2022-08-18T07:31:43.069Z,20.29
2022-08-18T07:32:42.077Z,20.32
2022-08-18T07:33:42.018Z,20.41
2022-08-18T07:34:42.002Z,20.32
2022-08-18T07:35:42.994Z,20.33
2022-08-18T07:36:41.996Z,20.36
2022-08-18T07:37:41.982Z,20.35
2022-08-18T07:38:43.805Z,20.39
2022-08-18T07:39:43.991Z,20.38
2022-08-18T07:40:42.942Z,20.55
2022-08-18T07:41:41.928Z,20.48
2022-08-18T07:42:56.780Z,20.57
2022-08-18T07:43:42.947Z,20.51
2022-08-18T07:44:41.894Z,20.43
2022-08-18T07:45:41.887Z,20.43
2022-08-18T07:46:41.868Z,20.47
2022-08-18T07:47:41.866Z,20.55
2022-08-18T07:48:41.856Z,20.54
2022-08-18T07:49:59.738Z,20.57
2022-08-18T07:50:58.218Z,20.59
2022-08-18T07:51:42.823Z,20.66
2022-08-18T07:52:47.179Z,20.64
2022-08-18T07:53:42.798Z,20.73
2022-08-18T07:54:49.288Z,20.73
2022-08-18T07:55:42.769Z,20.87
2022-08-18T07:56:41.759Z,20.82
2022-08-18T07:57:42.272Z,20.84
2022-08-18T07:58:41.745Z,20.92
2022-08-18T07:59:41.724Z,20.98
2022-08-18T08:00:58.270Z,20.98
2022-08-18T08:01:42.780Z,21.10
2022-08-18T08:02:41.738Z,21.16
2022-08-18T08:03:41.678Z,21.25
2022-08-18T08:04:41.682Z,21.29
2022-08-18T08:05:41.665Z,21.31
2022-08-18T08:06:45.113Z,21.29
2022-08-18T08:07:42.661Z,21.34
2022-08-18T08:08:41.631Z,21.32
2022-08-18T08:09:41.617Z,21.37
2022-08-18T08:10:41.604Z,21.38
2022-08-18T08:11:41.625Z,21.31
2022-08-18T08:12:41.622Z,21.32
2022-08-18T08:13:55.338Z,21.29
2022-08-18T08:14:42.573Z,21.35
2022-08-18T08:15:41.546Z,21.29
2022-08-18T08:16:41.536Z,21.31
2022-08-18T08:17:41.533Z,21.42
2022-08-18T08:18:41.555Z,21.44
2022-08-18T08:20:00.142Z,21.47
2022-08-18T08:20:42.501Z,21.59
2022-08-18T08:21:41.493Z,21.52
2022-08-18T08:22:41.477Z,21.56
2022-08-18T08:23:45.077Z,21.68
2022-08-18T08:24:41.490Z,21.69
2022-08-18T08:25:48.054Z,21.84
2022-08-18T08:26:42.425Z,21.92
2022-08-18T08:27:41.411Z,21.96
2022-08-18T08:28:41.418Z,21.91
2022-08-18T08:29:41.425Z,22.06
2022-08-18T08:30:42.154Z,22.02
2022-08-18T08:31:41.369Z,22.05
2022-08-18T08:32:41.369Z,22.02
2022-08-18T08:33:41.348Z,22.05
2022-08-18T08:34:41.355Z,21.99
2022-08-18T08:35:49.753Z,21.91
2022-08-18T08:36:42.365Z,22.03
2022-08-18T08:37:41.555Z,21.90
2022-08-18T08:38:43.119Z,22.03
2022-08-18T08:39:41.323Z,22.06
2022-08-18T08:40:42.911Z,22.05
2022-08-18T08:41:41.258Z,22.15
2022-08-18T08:42:41.281Z,22.10
2022-08-18T08:43:41.235Z,22.28
2022-08-18T08:44:58.165Z,22.28
2022-08-18T08:45:42.211Z,22.28
2022-08-18T08:46:41.200Z,22.24
2022-08-18T08:47:41.228Z,22.37
2022-08-18T08:48:41.206Z,22.22
2022-08-18T08:49:41.197Z,22.33
2022-08-18T08:50:41.159Z,22.31
2022-08-18T08:51:41.172Z,22.30
2022-08-18T08:52:41.137Z,22.33
2022-08-18T08:53:41.123Z,22.27
2022-08-18T08:54:41.112Z,22.37
2022-08-18T08:55:41.128Z,22.37
2022-08-18T08:56:49.148Z,22.39
2022-08-18T08:57:41.095Z,22.51
2022-08-18T08:58:41.109Z,22.55
2022-08-18T08:59:41.055Z,22.64
2022-08-18T09:00:41.106Z,22.62
2022-08-18T09:01:41.070Z,22.61
2022-08-18T09:02:48.919Z,22.68
2022-08-18T09:03:42.016Z,22.68
2022-08-18T09:04:54.805Z,22.73
2022-08-18T09:05:42.015Z,22.82
2022-08-18T09:06:40.991Z,22.85
2022-08-18T09:07:40.977Z,22.82
2022-08-18T09:08:40.969Z,22.86
2022-08-18T09:09:40.993Z,22.77
2022-08-18T09:10:40.931Z,22.76
2022-08-18T09:11:40.919Z,22.82
2022-08-18T09:12:40.915Z,22.80
2022-08-18T09:13:40.912Z,22.82
2022-08-18T09:14:40.889Z,22.68
2022-08-18T09:15:40.914Z,22.80
2022-08-18T09:16:40.895Z,22.77
2022-08-18T09:17:40.863Z,22.68
2022-08-18T09:18:40.855Z,22.72
2022-08-18T09:19:40.879Z,22.77
2022-08-18T09:20:41.579Z,22.67
2022-08-18T09:21:40.813Z,22.64
2022-08-18T09:22:40.799Z,22.61
2022-08-18T09:23:40.799Z,22.65
2022-08-18T09:24:40.819Z,22.73
2022-08-18T09:25:40.787Z,22.61
2022-08-18T09:26:40.755Z,22.65
2022-08-18T09:28:08.832Z,22.64
2022-08-18T09:28:41.732Z,22.70
2022-08-18T09:29:43.983Z,22.77
2022-08-18T09:30:40.747Z,22.90
2022-08-18T09:31:40.744Z,22.97
2022-08-18T09:32:40.687Z,23.01
2022-08-18T09:33:40.677Z,23.04
2022-08-18T09:34:40.666Z,23.13
2022-08-18T09:35:40.656Z,23.19
2022-08-18T09:36:40.689Z,23.16
2022-08-18T09:37:41.348Z,23.17
2022-08-18T09:38:40.668Z,23.20
2022-08-18T09:39:40.738Z,23.10
2022-08-18T09:41:01.920Z,23.17
2022-08-18T09:41:41.623Z,23.15
2022-08-18T09:43:41.567Z,23.22
2022-08-18T09:44:40.553Z,23.22
2022-08-18T09:45:40.547Z,23.02
2022-08-18T09:46:40.541Z,23.17
2022-08-18T09:47:40.566Z,23.16
2022-08-18T09:48:43.106Z,23.20
2022-08-18T09:49:41.494Z,23.16
2022-08-18T09:50:41.562Z,23.19
2022-08-18T09:51:41.315Z,23.23
2022-08-18T09:52:40.469Z,23.28
2022-08-18T09:53:40.487Z,23.32
2022-08-18T09:54:40.440Z,23.33
2022-08-18T09:55:40.428Z,23.33
2022-08-18T09:56:53.830Z,23.19
2022-08-18T09:57:43.782Z,23.19
2022-08-18T09:58:40.424Z,23.27
2022-08-18T09:59:40.414Z,23.32
2022-08-18T10:00:40.374Z,23.39
2022-08-18T10:01:40.631Z,23.48
2022-08-18T10:02:40.366Z,23.48
2022-08-18T10:03:40.339Z,23.50
2022-08-18T10:04:40.350Z,23.50
2022-08-18T10:05:40.354Z,23.57
2022-08-18T10:06:42.905Z,23.57
2022-08-18T10:07:43.326Z,23.68
2022-08-18T10:08:42.918Z,23.69
2022-08-18T10:09:40.657Z,23.69
2022-08-18T10:11:01.004Z,23.85
2022-08-18T10:11:41.278Z,23.84
2022-08-18T10:12:40.334Z,23.84
2022-08-18T10:13:43.810Z,23.91
2022-08-18T10:14:41.230Z,23.88
2022-08-18T10:15:40.219Z,23.84
2022-08-18T10:17:13.191Z,23.78
2022-08-18T10:18:41.189Z,23.84
2022-08-18T10:19:40.324Z,23.85
2022-08-18T10:20:41.316Z,23.84
2022-08-18T10:21:40.148Z,23.87
2022-08-18T10:22:40.180Z,23.80
2022-08-18T10:23:48.002Z,23.72
2022-08-18T10:24:41.116Z,23.80
2022-08-18T10:25:41.075Z,23.79
2022-08-18T10:26:40.095Z,23.80
2022-08-18T10:27:41.111Z,23.84
2022-08-18T10:28:40.058Z,23.97
2022-08-18T10:29:40.075Z,24.05
2022-08-18T10:30:56.629Z,24.15
2022-08-18T10:31:41.036Z,24.18
2022-08-18T10:32:40.031Z,24.24
2022-08-18T10:33:40.002Z,24.21
2022-08-18T10:34:40.032Z,24.27
2022-08-18T10:35:40.978Z,24.30
2022-08-18T10:36:40.172Z,24.28
2022-08-18T10:37:39.969Z,24.27
2022-08-18T10:38:39.959Z,24.21
2022-08-18T10:40:40.933Z,24.25
2022-08-18T10:41:41.488Z,24.27
2022-08-18T10:42:39.903Z,24.25
2022-08-18T10:43:45.686Z,24.22
2022-08-18T10:44:40.884Z,24.13
2022-08-18T10:45:39.909Z,24.18
2022-08-18T10:46:42.500Z,24.28
2022-08-18T10:47:40.853Z,24.22
2022-08-18T10:48:40.228Z,24.32
2022-08-18T10:49:46.693Z,24.34
2022-08-18T10:50:40.819Z,24.49
2022-08-18T10:51:59.929Z,24.46
2022-08-18T10:52:46.301Z,24.50
2022-08-18T10:53:44.404Z,24.47
2022-08-18T10:54:51.212Z,24.49
2022-08-18T10:56:40.770Z,24.50
2022-08-18T10:57:39.795Z,24.37
2022-08-18T10:58:39.726Z,24.35
2022-08-18T10:59:49.033Z,24.22
2022-08-18T11:00:40.701Z,24.22
2022-08-18T11:01:39.744Z,24.31
2022-08-18T11:02:39.681Z,24.30
2022-08-18T11:04:40.676Z,24.40
2022-08-18T11:05:39.660Z,24.42
2022-08-18T11:06:39.654Z,24.47
2022-08-18T11:07:39.781Z,24.53
2022-08-18T11:08:39.613Z,24.67
2022-08-18T11:09:45.893Z,24.64
2022-08-18T11:10:57.522Z,24.73
2022-08-18T11:11:41.381Z,24.84
2022-08-18T11:12:39.583Z,24.83
2022-08-18T11:13:39.554Z,24.85
2022-08-18T11:14:39.572Z,24.83
2022-08-18T11:15:39.614Z,24.80
2022-08-18T11:16:41.642Z,24.88
2022-08-18T11:17:40.466Z,24.84
2022-08-18T11:18:42.925Z,24.84
2022-08-18T11:19:41.992Z,24.98
2022-08-18T11:20:39.486Z,24.96
2022-08-18T11:21:42.605Z,24.96
2022-08-18T11:22:39.471Z,25.06
2022-08-18T11:23:39.455Z,25.15
2022-08-18T11:24:39.432Z,25.05
2022-08-18T11:25:39.419Z,25.13
2022-08-18T11:26:39.546Z,25.08
2022-08-18T11:27:40.358Z,25.08
2022-08-18T11:28:45.849Z,25.09
2022-08-18T11:29:40.416Z,25.23
2022-08-18T11:30:40.209Z,25.14
2022-08-18T11:31:39.352Z,25.21
2022-08-18T11:32:51.426Z,25.27
2022-08-18T11:33:40.345Z,25.30
2022-08-18T11:34:39.337Z,25.39
2022-08-18T11:35:40.363Z,25.43
2022-08-18T11:36:39.304Z,25.47
2022-08-18T11:38:42.088Z,25.58
2022-08-18T11:39:39.340Z,25.64
2022-08-18T11:41:48.443Z,25.72
2022-08-18T11:42:40.239Z,25.51
2022-08-18T11:43:42.430Z,25.54
2022-08-18T11:44:39.208Z,25.51
2022-08-18T11:45:39.219Z,25.51
2022-08-18T11:46:39.217Z,25.57
2022-08-18T11:47:39.174Z,25.50
2022-08-18T11:48:51.687Z,25.64
2022-08-18T11:49:40.162Z,25.73
2022-08-18T11:50:39.146Z,25.79
2022-08-18T11:51:40.175Z,25.83
2022-08-18T11:52:39.124Z,25.83
2022-08-18T11:53:39.111Z,25.82
2022-08-18T11:54:39.101Z,25.87
2022-08-18T11:55:40.116Z,25.83
2022-08-18T11:56:40.097Z,25.92
2022-08-18T11:57:39.102Z,25.94
2022-08-18T11:58:40.050Z,25.97
2022-08-18T11:59:52.632Z,25.85
2022-08-18T12:00:42.682Z,25.90
2022-08-18T12:01:42.128Z,25.91
2022-08-18T12:02:39.044Z,25.95
2022-08-18T12:03:39.017Z,25.92
2022-08-18T12:04:39.031Z,25.94
2022-08-18T12:05:45.997Z,25.98
2022-08-18T12:06:39.982Z,25.98
2022-08-18T12:07:38.954Z,25.91
2022-08-18T12:08:58.058Z,25.94
2022-08-18T12:10:39.959Z,26.06
2022-08-18T12:11:41.370Z,26.15
2022-08-18T12:12:38.911Z,26.28
2022-08-18T12:13:38.931Z,26.25
2022-08-18T12:14:39.016Z,26.30
2022-08-18T12:15:46.444Z,26.32
2022-08-18T12:16:39.858Z,26.48
2022-08-18T12:17:38.890Z,26.50
2022-08-18T12:18:38.861Z,26.55
2022-08-18T12:19:38.834Z,26.66
2022-08-18T12:20:38.839Z,26.66
2022-08-18T12:21:38.851Z,26.70
2022-08-18T12:22:38.819Z,26.63
2022-08-18T12:23:49.569Z,26.65
2022-08-18T12:24:40.085Z,26.70
2022-08-18T12:25:38.917Z,26.73
2022-08-18T12:27:39.768Z,26.75
2022-08-18T12:28:38.802Z,26.81
2022-08-18T12:29:43.495Z,26.87
2022-08-18T12:30:42.294Z,26.99
2022-08-18T12:31:42.793Z,27.12
2022-08-18T12:32:48.906Z,27.14
2022-08-18T12:33:48.375Z,27.27
2022-08-18T12:34:39.665Z,27.24
2022-08-18T12:35:41.935Z,27.22
2022-08-18T12:36:38.651Z,27.19
2022-08-18T12:38:39.608Z,27.12
2022-08-18T12:39:38.684Z,27.03
2022-08-18T12:40:38.658Z,27.00
2022-08-18T12:41:38.589Z,26.87
2022-08-18T12:42:38.601Z,26.88
2022-08-18T12:43:38.564Z,26.87
2022-08-18T12:44:38.544Z,26.85
2022-08-18T12:45:38.575Z,26.92
2022-08-18T12:46:38.536Z,26.89
2022-08-18T12:47:38.520Z,26.82
2022-08-18T12:48:38.537Z,26.92
2022-08-18T12:49:38.494Z,26.85
2022-08-18T12:50:50.012Z,26.89
2022-08-18T12:51:39.610Z,26.88
2022-08-18T12:52:38.476Z,26.87
2022-08-18T12:53:58.347Z,26.95
2022-08-18T12:54:41.298Z,26.88
2022-08-18T12:55:44.099Z,26.88
2022-08-18T12:56:39.430Z,26.88
2022-08-18T12:57:52.273Z,26.92
2022-08-18T12:58:39.399Z,26.94
2022-08-18T12:59:38.410Z,26.91
2022-08-18T13:00:38.409Z,26.87
2022-08-18T13:01:39.937Z,27.03
2022-08-18T13:02:38.349Z,26.99